KIZA

Details ICAO KIZA
Name SANTA YNEZ
Region United States
Timezone America/Los_Angeles (UTC-7.0)
Plans Departing 13
Arriving 17
Stats Elevation 671 ft / 205 m (AMSL)
Location 34.606800° -120.076000°
Runways 1
Magnetic Variation 12.376° E
Sunrise 2018-10-20 14:11:14 UTC / 2018-10-20 07:11:14 Local
Sunset 2018-10-21 01:21:10 UTC / 2018-10-20 18:21:10 Local
Advertisement - Login to hide

Runways

ID Width Length Bearing (true/mag) Surface Threshold Overrun Markings Lighting
08 75 ft / 23 m 2,798 ft / 853 m 98.28° / 85.91° ASPHALT 0 ft / 0 m 0 ft / 0 m APP EDGE THRESHOLD
26 75 ft / 23 m 2,798 ft / 853 m 278.29° / 265.91° ASPHALT 0 ft / 0 m 0 ft / 0 m APP EDGE THRESHOLD

Map

Weather


0- 5 10 15 20 25 30 35+ Temperature / °C

Clouds and Precipitation
Forecast for 2018-10-20 06:00 UTC. Updated 6 hours ago

Ground ~20,000 ft ~40,000 ft Winds

METAR

KIZA 200855Z AUTO 00000KT 7SM CLR 10/01 A3001 RMK AO2

TAF

Not found

Frequencies

Recorded 118.07 MHz AWOS 3
Approach 124.15 MHz SANTA BARB APP/DEP
Unicom 122.80 MHz CTAF/UNICOM
Warning: Do not use this data for real-world aviation or navigation. No guarantee of current accuracy is given.